createdAt,value
2018-03-30T00:01:44.775Z,999.00
2018-03-30T00:02:44.765Z,998.97
2018-03-30T00:04:37.689Z,998.94
2018-03-30T00:05:37.700Z,998.91
2018-03-30T00:07:30.652Z,998.96
2018-03-30T00:08:30.628Z,998.95
2018-03-30T00:10:23.554Z,998.93
2018-03-30T00:11:23.566Z,998.94
2018-03-30T00:13:16.510Z,998.96
2018-03-30T00:14:16.503Z,998.94
2018-03-30T00:16:09.441Z,998.90
2018-03-30T00:17:09.437Z,998.90
2018-03-30T00:19:02.354Z,998.88
2018-03-30T00:20:02.379Z,998.84
2018-03-30T00:21:55.304Z,998.90
2018-03-30T00:22:55.296Z,998.92
2018-03-30T00:24:48.226Z,998.90
2018-03-30T00:25:48.237Z,998.89
2018-03-30T00:27:41.178Z,998.78
2018-03-30T00:28:41.167Z,998.75
2018-03-30T00:30:34.106Z,998.82
2018-03-30T00:31:34.111Z,998.77
2018-03-30T00:33:27.092Z,998.73
2018-03-30T00:34:27.041Z,998.75
2018-03-30T00:36:19.992Z,998.66
2018-03-30T00:37:19.983Z,998.68
2018-03-30T00:39:12.900Z,998.62
2018-03-30T00:40:12.910Z,998.67
2018-03-30T00:42:05.854Z,998.66
2018-03-30T00:43:05.847Z,998.65
2018-03-30T00:44:58.768Z,998.63
2018-03-30T00:45:58.782Z,998.64
2018-03-30T00:47:51.738Z,998.61
2018-03-30T00:48:51.710Z,998.59
2018-03-30T00:50:44.636Z,998.58
2018-03-30T00:51:44.646Z,998.59
2018-03-30T00:53:37.585Z,998.63
2018-03-30T00:54:37.631Z,998.62
2018-03-30T00:56:30.519Z,998.52
2018-03-30T00:57:30.514Z,998.49
2018-03-30T00:59:23.438Z,998.43
2018-03-30T01:00:23.445Z,998.43
2018-03-30T01:02:16.388Z,998.45
2018-03-30T01:03:16.378Z,998.44
2018-03-30T01:05:09.299Z,998.41
2018-03-30T01:06:09.313Z,998.39
2018-03-30T01:08:02.256Z,998.38
2018-03-30T01:09:02.246Z,998.40
2018-03-30T01:10:55.165Z,998.36
2018-03-30T01:11:55.180Z,998.33
2018-03-30T01:13:48.632Z,998.33
2018-03-30T01:14:48.623Z,998.32
2018-03-30T01:16:42.064Z,998.29
2018-03-30T01:17:42.045Z,998.24
2018-03-30T01:19:34.988Z,998.26
2018-03-30T01:20:34.990Z,998.31
2018-03-30T01:22:27.933Z,998.30
2018-03-30T01:23:27.928Z,998.27
2018-03-30T01:25:20.850Z,998.24
2018-03-30T01:26:20.858Z,998.26
2018-03-30T01:28:13.800Z,998.19
2018-03-30T01:29:13.790Z,998.24
2018-03-30T01:31:06.719Z,998.25
2018-03-30T01:32:06.728Z,998.17
2018-03-30T01:33:59.671Z,998.14
2018-03-30T01:34:59.662Z,998.18
2018-03-30T01:36:52.609Z,998.19
2018-03-30T01:37:52.598Z,998.18
2018-03-30T01:39:45.534Z,998.16
2018-03-30T01:40:45.541Z,998.18
2018-03-30T01:42:38.487Z,998.16
2018-03-30T01:43:38.480Z,998.15
2018-03-30T01:45:31.395Z,998.11
2018-03-30T01:46:31.409Z,998.17
2018-03-30T01:48:24.351Z,998.14
2018-03-30T01:49:24.399Z,998.15
2018-03-30T01:51:17.271Z,998.19
2018-03-30T01:52:17.281Z,998.26
2018-03-30T01:54:10.230Z,998.29
2018-03-30T01:55:10.221Z,998.25
2018-03-30T01:57:03.170Z,998.24
2018-03-30T01:58:03.153Z,998.22
2018-03-30T01:59:56.085Z,998.21
2018-03-30T02:00:56.094Z,998.25
2018-03-30T02:02:49.039Z,998.20
2018-03-30T02:03:49.025Z,998.26
2018-03-30T02:05:41.952Z,998.22
2018-03-30T02:06:41.964Z,998.20
2018-03-30T02:08:35.402Z,998.23
2018-03-30T02:09:35.394Z,998.24
2018-03-30T02:11:28.324Z,998.20
2018-03-30T02:12:28.332Z,998.28
2018-03-30T02:14:21.774Z,998.22
2018-03-30T02:15:21.766Z,998.27
2018-03-30T02:17:14.725Z,998.30
2018-03-30T02:18:14.703Z,998.30
2018-03-30T02:20:07.629Z,998.27
2018-03-30T02:21:07.636Z,998.19
2018-03-30T02:23:00.584Z,998.21
2018-03-30T02:24:00.592Z,998.21
2018-03-30T02:25:53.498Z,998.16
2018-03-30T02:26:53.511Z,998.16
2018-03-30T02:28:46.448Z,998.15
2018-03-30T02:29:46.443Z,998.24
2018-03-30T02:31:39.371Z,998.21
2018-03-30T02:32:39.378Z,998.24
2018-03-30T02:34:32.323Z,998.24
2018-03-30T02:35:32.316Z,998.21
2018-03-30T02:37:25.242Z,998.22
2018-03-30T02:38:25.253Z,998.21
2018-03-30T02:40:18.200Z,998.21
2018-03-30T02:41:18.191Z,998.26
2018-03-30T02:43:11.132Z,998.30
2018-03-30T02:44:11.123Z,998.29
2018-03-30T02:46:04.057Z,998.28
2018-03-30T02:47:04.069Z,998.26
2018-03-30T02:48:57.008Z,998.30
2018-03-30T02:49:56.999Z,998.28
2018-03-30T02:51:49.984Z,998.28
2018-03-30T02:52:49.930Z,998.31
2018-03-30T02:54:42.882Z,998.21
2018-03-30T02:55:42.871Z,998.16
2018-03-30T02:57:35.813Z,998.17
2018-03-30T02:58:35.807Z,998.22
2018-03-30T03:00:28.753Z,998.14
2018-03-30T03:01:28.741Z,998.15
2018-03-30T05:02:38.125Z,997.16
2018-03-30T05:03:38.102Z,997.22
2018-03-30T05:05:31.032Z,997.16
2018-03-30T05:06:31.015Z,997.16
2018-03-30T05:08:23.920Z,997.18
2018-03-30T05:09:23.929Z,997.26
2018-03-30T05:11:16.856Z,997.32
2018-03-30T05:12:16.843Z,997.31
2018-03-30T05:14:09.762Z,997.30
2018-03-30T05:15:09.774Z,997.30
2018-03-30T05:17:02.710Z,997.28
2018-03-30T05:18:02.700Z,997.27
2018-03-30T05:19:55.646Z,997.25
2018-03-30T05:20:55.630Z,997.25
2018-03-30T05:22:48.546Z,997.30
2018-03-30T05:23:48.562Z,997.29
2018-03-30T05:25:41.509Z,997.25
2018-03-30T05:26:41.494Z,997.27
2018-03-30T05:28:34.421Z,997.28
2018-03-30T05:29:34.429Z,997.29
2018-03-30T05:31:27.366Z,997.25
2018-03-30T05:32:27.353Z,997.23
2018-03-30T05:34:20.293Z,997.22
2018-03-30T05:35:20.285Z,997.24
2018-03-30T05:37:13.225Z,997.21
2018-03-30T05:38:13.221Z,997.20
2018-03-30T05:40:06.157Z,997.20
2018-03-30T05:41:06.139Z,997.18
2018-03-30T05:42:59.063Z,997.17
2018-03-30T05:43:59.070Z,997.11
2018-03-30T05:45:52.017Z,997.09
2018-03-30T05:46:52.003Z,997.09
2018-03-30T05:48:46.420Z,997.05
2018-03-30T05:49:46.431Z,997.02
2018-03-30T05:51:39.371Z,997.02
2018-03-30T05:52:39.366Z,997.07
2018-03-30T05:54:32.286Z,997.03
2018-03-30T05:55:32.293Z,997.00
2018-03-30T05:57:25.238Z,996.94
2018-03-30T05:58:25.226Z,996.97
2018-03-30T06:00:18.165Z,997.03
2018-03-30T06:01:18.157Z,996.97
2018-03-30T06:03:11.079Z,997.00
2018-03-30T06:04:11.089Z,997.00
2018-03-30T06:06:04.038Z,997.00
2018-03-30T06:07:04.021Z,997.00
2018-03-30T06:08:56.955Z,997.06
2018-03-30T06:09:56.958Z,996.99
2018-03-30T06:11:49.919Z,997.02
2018-03-30T06:12:49.900Z,997.02
2018-03-30T06:14:42.818Z,997.01
2018-03-30T06:15:42.826Z,996.97
2018-03-30T06:17:35.780Z,996.96
2018-03-30T06:18:35.761Z,996.99
2018-03-30T06:20:28.702Z,996.97
2018-03-30T06:21:28.691Z,996.97
2018-03-30T06:23:21.626Z,996.99
2018-03-30T06:24:21.632Z,996.98
2018-03-30T06:26:14.581Z,997.05
2018-03-30T06:27:14.562Z,997.07
2018-03-30T06:29:07.481Z,997.03
2018-03-30T06:30:07.494Z,997.09
2018-03-30T06:32:00.443Z,997.09
2018-03-30T06:33:00.427Z,997.09
2018-03-30T06:34:53.355Z,997.06
2018-03-30T06:35:53.358Z,997.11
2018-03-30T06:37:46.306Z,997.05
2018-03-30T06:38:46.291Z,997.07
2018-03-30T06:40:39.234Z,997.09
2018-03-30T06:41:39.225Z,997.11
2018-03-30T06:43:32.150Z,997.07
2018-03-30T06:44:32.160Z,997.01
2018-03-30T06:46:25.115Z,997.03
2018-03-30T06:47:25.098Z,997.03
2018-03-30T06:49:18.015Z,997.01
2018-03-30T06:50:18.026Z,996.99
2018-03-30T06:52:10.976Z,997.03
2018-03-30T06:53:10.958Z,997.00
2018-03-30T06:55:03.886Z,997.03
2018-03-30T06:56:03.894Z,997.04
2018-03-30T06:57:56.838Z,996.99
2018-03-30T06:58:56.879Z,996.94
2018-03-30T07:00:49.861Z,996.94
2018-03-30T07:01:49.788Z,996.97
2018-03-30T07:03:42.703Z,996.99
2018-03-30T07:04:42.690Z,997.00
2018-03-30T07:06:35.636Z,996.98
2018-03-30T07:07:35.625Z,996.99
2018-03-30T07:09:28.546Z,997.00
2018-03-30T07:10:28.553Z,997.00
2018-03-30T07:12:21.498Z,997.07
2018-03-30T07:13:21.487Z,997.03
2018-03-30T07:15:14.424Z,997.04
2018-03-30T07:16:14.435Z,997.09
2018-03-30T07:18:07.377Z,997.04
2018-03-30T07:19:07.366Z,997.01
2018-03-30T07:21:00.294Z,996.97
2018-03-30T07:22:00.302Z,996.81
2018-03-30T07:23:53.254Z,996.80
2018-03-30T07:24:53.234Z,996.85
2018-03-30T07:26:46.180Z,996.87
2018-03-30T07:27:46.172Z,996.83
2018-03-30T07:29:39.095Z,996.84
2018-03-30T07:30:39.100Z,996.88
2018-03-30T07:32:32.041Z,996.78
2018-03-30T07:33:32.043Z,996.80
2018-03-30T07:35:24.953Z,996.77
2018-03-30T07:36:24.963Z,996.79
2018-03-30T07:38:17.911Z,996.79
2018-03-30T07:39:18.088Z,996.82
2018-03-30T07:41:10.841Z,996.86
2018-03-30T07:42:10.833Z,996.81
2018-03-30T07:44:03.783Z,996.76
2018-03-30T07:45:03.772Z,996.80
2018-03-30T07:46:56.753Z,996.83
2018-03-30T07:47:56.717Z,996.78
2018-03-30T07:49:49.628Z,996.71
2018-03-30T07:50:49.637Z,996.73
2018-03-30T07:52:42.597Z,996.70
2018-03-30T07:53:42.572Z,996.68
2018-03-30T07:55:35.495Z,996.64
2018-03-30T07:56:35.522Z,996.65
2018-03-30T07:58:28.453Z,996.61
2018-03-30T07:59:28.446Z,996.59
2018-03-30T08:01:21.372Z,996.60
2018-03-30T08:02:21.380Z,996.63
2018-03-30T08:04:14.326Z,996.67
2018-03-30T08:05:14.320Z,996.64
2018-03-30T08:07:07.270Z,996.59
2018-03-30T08:08:07.260Z,996.61
2018-03-30T08:10:00.193Z,996.68
2018-03-30T08:11:00.200Z,996.64
2018-03-30T08:12:53.143Z,996.59
2018-03-30T08:13:53.134Z,996.57
2018-03-30T08:15:46.058Z,996.55
2018-03-30T08:16:46.072Z,996.53
2018-03-30T08:18:39.023Z,996.50
2018-03-30T08:19:39.012Z,996.53
2018-03-30T08:21:31.942Z,996.49
2018-03-30T08:22:31.988Z,996.51
2018-03-30T08:24:24.903Z,996.46
2018-03-30T08:25:24.888Z,996.46
2018-03-30T08:27:17.835Z,996.44
2018-03-30T08:28:17.826Z,996.49
2018-03-30T08:30:10.781Z,996.49
2018-03-30T08:31:10.768Z,996.52
2018-03-30T08:33:03.717Z,996.49
2018-03-30T08:34:03.708Z,996.49
2018-03-30T08:35:56.638Z,996.50
2018-03-30T08:36:56.658Z,996.52
2018-03-30T08:38:49.607Z,996.48
2018-03-30T08:39:49.606Z,996.49
2018-03-30T08:41:42.532Z,996.43
2018-03-30T08:42:42.544Z,996.36
2018-03-30T08:44:35.990Z,996.41
2018-03-30T08:45:35.980Z,996.40
2018-03-30T08:47:28.934Z,996.34
2018-03-30T08:48:28.926Z,996.38
2018-03-30T08:50:21.857Z,996.37
2018-03-30T08:51:21.873Z,996.38
2018-03-30T08:53:14.833Z,996.35
2018-03-30T08:54:14.821Z,996.34
2018-03-30T08:56:07.762Z,996.32
2018-03-30T08:57:07.768Z,996.25
2018-03-30T08:59:00.720Z,996.21
2018-03-30T09:00:00.716Z,996.26
2018-03-30T09:01:53.648Z,996.21
2018-03-30T09:02:53.659Z,996.17
2018-03-30T09:04:46.612Z,996.21
2018-03-30T09:05:46.608Z,996.12
2018-03-30T09:07:39.561Z,996.11
2018-03-30T09:08:39.555Z,996.17
2018-03-30T09:10:32.487Z,996.10
2018-03-30T09:11:32.498Z,996.02
2018-03-30T09:13:25.946Z,996.01
2018-03-30T09:14:25.939Z,995.98
2018-03-30T09:16:18.869Z,995.98
2018-03-30T09:17:18.889Z,995.97
2018-03-30T09:19:11.840Z,996.01
2018-03-30T09:20:11.837Z,995.98
2018-03-30T09:22:04.771Z,996.05
2018-03-30T09:23:04.783Z,995.99
2018-03-30T09:24:57.731Z,995.97
2018-03-30T09:25:57.731Z,995.99
2018-03-30T09:27:50.680Z,995.94
2018-03-30T09:28:50.678Z,995.97
2018-03-30T09:30:43.605Z,995.92
2018-03-30T09:31:43.619Z,995.89
2018-03-30T09:33:36.569Z,995.87
2018-03-30T09:34:36.567Z,995.81
2018-03-30T09:36:29.501Z,995.85
2018-03-30T09:37:29.522Z,995.90
2018-03-30T09:39:22.481Z,995.87
2018-03-30T09:40:22.468Z,995.81
2018-03-30T09:42:15.399Z,995.82
2018-03-30T09:43:15.415Z,995.87
2018-03-30T09:45:08.363Z,995.80
2018-03-30T09:46:08.358Z,995.72
2018-03-30T09:48:01.809Z,995.74
2018-03-30T09:49:01.802Z,995.70
2018-03-30T09:50:54.737Z,995.76
2018-03-30T09:51:54.751Z,995.70
2018-03-30T09:53:47.703Z,995.62
2018-03-30T09:54:47.698Z,995.59
2018-03-30T09:56:40.630Z,995.62
2018-03-30T09:57:40.641Z,995.61
2018-03-30T09:59:33.599Z,995.57
2018-03-30T10:00:33.601Z,995.49
2018-03-30T10:02:26.527Z,995.61
2018-03-30T10:03:26.550Z,995.56
2018-03-30T10:05:19.487Z,995.45
2018-03-30T10:06:19.483Z,995.53
2018-03-30T10:08:12.455Z,995.48
2018-03-30T10:09:12.433Z,995.45
2018-03-30T10:11:05.360Z,995.48
2018-03-30T10:12:05.375Z,995.48
2018-03-30T10:13:58.329Z,995.44
2018-03-30T10:14:58.332Z,995.40
2018-03-30T10:16:51.257Z,995.44
2018-03-30T10:17:51.266Z,995.34
2018-03-30T10:19:44.221Z,995.30
2018-03-30T10:20:44.219Z,995.36
2018-03-30T10:22:37.152Z,995.32
2018-03-30T10:23:37.162Z,995.28
2018-03-30T10:25:30.123Z,995.27
2018-03-30T10:26:30.109Z,995.21
2018-03-30T10:28:23.046Z,995.18
2018-03-30T10:29:23.059Z,995.13
2018-03-30T10:31:16.017Z,995.15
2018-03-30T10:32:16.010Z,995.10
2018-03-30T10:34:09.464Z,995.07
2018-03-30T10:35:09.455Z,995.07
2018-03-30T10:37:02.389Z,995.06
2018-03-30T10:38:02.399Z,995.02
2018-03-30T10:39:55.355Z,995.00
2018-03-30T10:40:55.349Z,994.95
2018-03-30T10:42:48.287Z,994.93
2018-03-30T10:43:48.294Z,994.91
2018-03-30T10:45:41.252Z,994.87
2018-03-30T10:46:41.251Z,994.86
2018-03-30T10:48:34.189Z,994.92
2018-03-30T10:49:34.202Z,994.88
2018-03-30T10:51:27.164Z,994.84
2018-03-30T10:52:27.159Z,994.83
2018-03-30T10:54:20.114Z,994.76
2018-03-30T10:55:20.110Z,994.81
2018-03-30T10:57:13.054Z,994.72
2018-03-30T10:58:13.065Z,994.73
2018-03-30T11:00:06.011Z,994.70
2018-03-30T11:01:06.007Z,994.66
2018-03-30T11:02:58.939Z,994.61
2018-03-30T11:03:58.962Z,994.55
2018-03-30T11:05:51.920Z,994.62
2018-03-30T11:06:51.916Z,994.52
2018-03-30T11:08:44.856Z,994.54
2018-03-30T11:09:44.867Z,994.50
2018-03-30T11:11:37.869Z,994.42
2018-03-30T11:12:37.815Z,994.31
2018-03-30T11:14:30.769Z,994.30
2018-03-30T11:15:30.764Z,994.25
2018-03-30T11:17:23.710Z,994.19
2018-03-30T11:18:23.721Z,994.21
2018-03-30T11:20:16.677Z,994.10
2018-03-30T11:21:16.671Z,993.99
2018-03-30T11:23:09.605Z,993.91
2018-03-30T11:24:09.625Z,993.91
2018-03-30T11:26:02.585Z,993.78
2018-03-30T11:27:02.574Z,993.79
2018-03-30T11:28:55.508Z,993.73
2018-03-30T11:29:55.528Z,993.67
2018-03-30T11:31:48.483Z,993.60
2018-03-30T11:32:48.478Z,993.59
2018-03-30T11:34:41.427Z,993.51
2018-03-30T11:35:41.424Z,993.57
2018-03-30T11:37:34.359Z,993.53
2018-03-30T11:38:34.376Z,993.54
2018-03-30T11:40:27.331Z,993.50
2018-03-30T11:41:27.323Z,993.53
2018-03-30T11:43:20.260Z,993.44
2018-03-30T11:44:20.275Z,993.46
2018-03-30T11:46:13.222Z,993.42
2018-03-30T11:47:13.218Z,993.43
2018-03-30T11:49:06.155Z,993.46
2018-03-30T11:50:06.168Z,993.34
2018-03-30T11:51:59.122Z,993.40
2018-03-30T11:52:59.127Z,993.46
2018-03-30T11:54:52.080Z,993.48
2018-03-30T11:55:52.072Z,993.50
2018-03-30T11:57:45.007Z,993.59
2018-03-30T11:58:45.025Z,993.67
2018-03-30T12:00:37.973Z,993.64
2018-03-30T12:01:37.966Z,993.68
2018-03-30T12:03:30.904Z,993.75
2018-03-30T12:04:30.920Z,993.79
2018-03-30T12:06:23.883Z,993.71
2018-03-30T12:07:23.882Z,993.81
2018-03-30T12:09:16.813Z,993.75
2018-03-30T12:10:16.827Z,993.80
2018-03-30T12:12:09.781Z,993.76
2018-03-30T12:13:09.790Z,993.77
2018-03-30T12:15:02.730Z,993.67
2018-03-30T12:16:02.726Z,993.60
2018-03-30T12:17:55.659Z,993.61
2018-03-30T12:18:55.680Z,993.56
2018-03-30T12:20:48.629Z,993.57
2018-03-30T12:21:48.629Z,993.58
2018-03-30T12:23:41.556Z,993.57
2018-03-30T12:24:41.575Z,993.53
2018-03-30T12:26:34.527Z,993.59
2018-03-30T12:27:34.518Z,993.59
2018-03-30T12:29:27.457Z,993.62
2018-03-30T12:30:27.469Z,993.62
2018-03-30T12:32:20.423Z,993.53
2018-03-30T12:33:20.423Z,993.48
2018-03-30T12:35:13.370Z,993.46
2018-03-30T12:36:13.369Z,993.50
2018-03-30T12:38:06.307Z,993.52
2018-03-30T12:39:06.316Z,993.50
2018-03-30T12:40:59.288Z,993.54
2018-03-30T12:41:59.267Z,993.52
2018-03-30T12:43:52.201Z,993.57
2018-03-30T12:44:52.216Z,993.51
2018-03-30T12:46:45.170Z,993.52
2018-03-30T12:47:45.171Z,993.50
2018-03-30T12:49:38.110Z,993.42
2018-03-30T12:50:38.139Z,993.40
2018-03-30T12:52:31.084Z,993.37
2018-03-30T12:53:31.079Z,993.35
2018-03-30T12:55:24.039Z,993.32
2018-03-30T12:56:24.031Z,993.29
2018-03-30T12:58:16.967Z,993.32
2018-03-30T12:59:16.983Z,993.27
2018-03-30T13:01:09.944Z,993.28
2018-03-30T13:02:09.944Z,993.24
2018-03-30T13:04:02.881Z,993.29
2018-03-30T13:05:02.896Z,993.27
2018-03-30T13:06:55.848Z,993.27
2018-03-30T13:07:55.848Z,993.24
2018-03-30T13:09:48.785Z,993.26
2018-03-30T13:10:48.795Z,993.24
2018-03-30T13:12:41.755Z,993.22
2018-03-30T13:13:41.751Z,993.20
2018-03-30T13:15:34.708Z,993.12
2018-03-30T13:16:34.707Z,993.07
2018-03-30T13:18:27.640Z,993.01
2018-03-30T13:19:27.652Z,993.03
2018-03-30T13:21:20.612Z,993.01
2018-03-30T13:22:20.606Z,993.03
2018-03-30T13:24:13.562Z,992.88
2018-03-30T13:25:13.562Z,992.88
2018-03-30T13:27:06.529Z,992.93
2018-03-30T13:28:06.523Z,992.89
2018-03-30T13:29:59.454Z,992.88
2018-03-30T13:30:59.479Z,992.84
2018-03-30T13:32:52.420Z,992.78
2018-03-30T13:33:52.415Z,992.81
2018-03-30T13:35:45.392Z,992.81
2018-03-30T13:36:45.371Z,992.79
2018-03-30T13:38:38.303Z,992.72
2018-03-30T13:39:38.327Z,992.66
2018-03-30T13:41:31.276Z,992.64
2018-03-30T13:42:31.282Z,992.64
2018-03-30T13:44:24.213Z,992.60
2018-03-30T13:45:24.226Z,992.65
2018-03-30T13:47:17.180Z,992.63
2018-03-30T13:48:17.180Z,992.52
2018-03-30T13:50:10.112Z,992.54
2018-03-30T13:51:10.136Z,992.47
2018-03-30T13:53:03.082Z,992.46
2018-03-30T13:54:03.078Z,992.50
2018-03-30T13:55:56.016Z,992.38
2018-03-30T13:56:56.031Z,992.40
2018-03-30T13:58:49.002Z,992.35
2018-03-30T13:59:48.982Z,992.32
2018-03-30T14:01:41.958Z,992.31
2018-03-30T14:02:41.937Z,992.25
2018-03-30T14:04:34.874Z,992.24
2018-03-30T14:05:34.890Z,992.22
2018-03-30T14:07:28.336Z,992.17
2018-03-30T14:08:28.332Z,992.12
2018-03-30T14:10:21.771Z,992.12
2018-03-30T14:11:21.799Z,992.12
2018-03-30T14:13:14.748Z,992.01
2018-03-30T14:14:14.745Z,992.05
2018-03-30T14:16:07.695Z,991.99
2018-03-30T14:17:07.701Z,992.08
2018-03-30T14:19:00.660Z,992.00
2018-03-30T14:20:00.660Z,992.03
2018-03-30T14:21:53.590Z,992.05
2018-03-30T14:22:53.609Z,992.08
2018-03-30T14:24:47.060Z,992.13
2018-03-30T14:25:47.056Z,992.08
2018-03-30T14:27:40.008Z,992.09
2018-03-30T14:28:40.006Z,992.14
2018-03-30T14:30:32.941Z,992.07
2018-03-30T14:31:32.960Z,992.08
2018-03-30T14:33:25.909Z,992.07
2018-03-30T14:34:25.905Z,992.11
2018-03-30T14:36:18.838Z,992.08
2018-03-30T14:37:18.854Z,992.02
2018-03-30T14:39:11.821Z,992.00
2018-03-30T14:40:11.882Z,991.94
2018-03-30T14:42:05.246Z,991.94
2018-03-30T14:43:05.263Z,991.95
2018-03-30T14:44:58.215Z,991.98
2018-03-30T14:45:58.210Z,991.94
2018-03-30T14:47:51.143Z,991.98
2018-03-30T14:48:51.159Z,991.93
2018-03-30T14:50:44.112Z,991.84
2018-03-30T14:51:44.108Z,991.89
2018-03-30T14:53:37.101Z,991.84
2018-03-30T14:54:37.069Z,991.84
2018-03-30T14:56:30.000Z,991.79
2018-03-30T14:57:30.017Z,991.80
2018-03-30T14:59:22.976Z,991.69
2018-03-30T15:00:22.977Z,991.67
2018-03-30T15:02:15.907Z,991.71
2018-03-30T15:03:15.922Z,991.67
2018-03-30T15:05:08.869Z,991.68
2018-03-30T15:06:08.904Z,991.62
2018-03-30T15:08:01.805Z,991.62
2018-03-30T15:09:01.815Z,991.61
2018-03-30T15:10:54.771Z,991.62
2018-03-30T15:11:54.763Z,991.61
2018-03-30T15:13:47.700Z,991.61
2018-03-30T15:14:47.716Z,991.59
2018-03-30T15:16:40.668Z,991.60
2018-03-30T15:17:40.669Z,991.58
2018-03-30T15:19:33.611Z,991.55
2018-03-30T15:20:33.621Z,991.48
2018-03-30T15:22:26.585Z,991.55
2018-03-30T15:23:26.582Z,991.54
2018-03-30T15:25:19.517Z,991.57
2018-03-30T15:26:19.530Z,991.51
2018-03-30T15:28:12.485Z,991.51
2018-03-30T15:29:12.488Z,991.47
2018-03-30T15:31:05.454Z,991.49
2018-03-30T15:32:05.435Z,991.49
2018-03-30T15:33:58.387Z,991.47
2018-03-30T15:34:58.402Z,991.52
2018-03-30T15:36:51.358Z,991.49
2018-03-30T15:37:51.346Z,991.51
2018-03-30T15:39:44.285Z,991.46
2018-03-30T15:40:44.297Z,991.41
2018-03-30T15:42:37.250Z,991.35
2018-03-30T15:43:37.246Z,991.35
2018-03-30T15:45:30.181Z,991.43
2018-03-30T15:46:30.193Z,991.30
2018-03-30T15:48:23.146Z,991.35
2018-03-30T15:49:23.139Z,991.31
2018-03-30T15:51:16.092Z,991.24
2018-03-30T15:52:16.088Z,991.27
2018-03-30T15:54:09.048Z,991.21
2018-03-30T15:55:09.043Z,991.16
2018-03-30T15:57:01.999Z,991.23
2018-03-30T15:58:02.007Z,991.22
2018-03-30T15:59:54.923Z,991.20
2018-03-30T16:00:54.942Z,991.16
2018-03-30T16:02:47.899Z,991.12
2018-03-30T16:03:47.892Z,991.16
2018-03-30T16:05:40.832Z,991.13
2018-03-30T16:06:40.842Z,991.17
2018-03-30T16:08:33.795Z,991.17
2018-03-30T16:09:33.790Z,991.20
2018-03-30T16:11:26.719Z,991.13
2018-03-30T16:12:26.730Z,991.13
2018-03-30T16:14:19.696Z,991.14
2018-03-30T16:15:19.690Z,991.12
2018-03-30T16:17:12.621Z,991.18
2018-03-30T16:18:12.634Z,991.17
2018-03-30T16:20:05.586Z,991.22
2018-03-30T16:21:05.582Z,991.19
2018-03-30T16:22:58.538Z,991.12
2018-03-30T16:23:58.534Z,991.09
2018-03-30T16:25:51.464Z,991.13
2018-03-30T16:26:51.480Z,991.13
2018-03-30T16:28:44.427Z,991.10
2018-03-30T16:29:44.426Z,991.08
2018-03-30T16:31:37.356Z,991.18
2018-03-30T16:32:37.370Z,991.23
2018-03-30T16:34:30.331Z,991.11
2018-03-30T16:35:30.340Z,991.14
2018-03-30T16:37:23.265Z,991.13
2018-03-30T16:38:23.281Z,991.19
2018-03-30T16:40:16.228Z,991.15
2018-03-30T16:41:16.235Z,991.15
2018-03-30T16:43:09.180Z,991.13
2018-03-30T16:44:09.178Z,991.12
2018-03-30T16:46:02.110Z,991.13
2018-03-30T16:47:02.124Z,991.10
2018-03-30T16:48:55.074Z,991.10
2018-03-30T16:49:55.070Z,991.07
2018-03-30T16:51:48.017Z,991.05
2018-03-30T16:52:48.029Z,991.08
2018-03-30T16:54:40.978Z,991.08
2018-03-30T16:55:40.973Z,991.07
2018-03-30T16:57:33.905Z,991.05
2018-03-30T16:58:33.921Z,991.05
2018-03-30T17:00:26.866Z,991.05
2018-03-30T17:01:26.865Z,991.00
2018-03-30T17:03:19.813Z,991.03
2018-03-30T17:04:19.809Z,991.05
2018-03-30T17:06:12.736Z,991.03
2018-03-30T17:07:12.750Z,991.04
2018-03-30T17:09:05.707Z,991.04
2018-03-30T17:10:05.700Z,991.01
2018-03-30T17:11:59.130Z,991.05
2018-03-30T17:12:59.141Z,991.06
2018-03-30T17:14:52.088Z,991.08
2018-03-30T17:15:52.089Z,991.07
2018-03-30T17:17:45.016Z,991.04
2018-03-30T17:18:45.028Z,991.02
2018-03-30T17:20:37.982Z,991.02
2018-03-30T17:21:37.977Z,991.07
2018-03-30T17:23:30.935Z,991.06
2018-03-30T17:24:30.926Z,991.00
2018-03-30T17:26:23.858Z,991.05
2018-03-30T17:27:23.873Z,991.01
2018-03-30T17:29:16.835Z,991.06
2018-03-30T17:30:16.830Z,991.07
2018-03-30T17:32:09.744Z,991.07
2018-03-30T17:33:09.761Z,991.04
2018-03-30T17:35:02.714Z,991.07
2018-03-30T17:36:02.702Z,991.07
2018-03-30T17:37:55.638Z,991.00
2018-03-30T17:38:55.651Z,991.04
2018-03-30T17:40:48.606Z,991.01
2018-03-30T17:41:48.600Z,991.02
2018-03-30T17:43:41.559Z,991.01
2018-03-30T17:44:41.551Z,990.98
2018-03-30T17:46:34.483Z,991.08
2018-03-30T17:47:34.501Z,991.00
2018-03-30T17:49:27.447Z,990.98
2018-03-30T17:50:27.443Z,990.94
2018-03-30T17:52:20.379Z,991.01
2018-03-30T17:53:20.387Z,990.95
2018-03-30T17:55:13.331Z,990.98
2018-03-30T17:56:13.377Z,991.01
2018-03-30T17:58:06.256Z,991.01
2018-03-30T17:59:06.272Z,990.99
2018-03-30T18:00:59.219Z,990.99
2018-03-30T18:01:59.214Z,990.99
2018-03-30T18:03:52.176Z,990.97
2018-03-30T18:04:52.156Z,990.95
2018-03-30T18:06:45.082Z,990.91
2018-03-30T18:07:45.095Z,990.96
2018-03-30T18:09:38.045Z,990.92
2018-03-30T18:10:38.038Z,990.95
2018-03-30T18:12:30.984Z,991.00
2018-03-30T18:13:31.017Z,990.99
2018-03-30T18:15:23.943Z,990.95
2018-03-30T18:16:23.934Z,990.95
2018-03-30T18:18:16.864Z,990.94
2018-03-30T18:19:16.887Z,990.99
2018-03-30T18:21:09.835Z,990.99
2018-03-30T18:22:09.826Z,990.97
2018-03-30T18:24:02.774Z,990.94
2018-03-30T18:25:02.769Z,990.96
2018-03-30T18:26:55.694Z,990.96
2018-03-30T18:27:55.711Z,990.99
2018-03-30T18:29:48.657Z,991.00
2018-03-30T18:30:48.706Z,991.03
2018-03-30T18:32:41.580Z,991.04
2018-03-30T18:33:41.595Z,991.05
2018-03-30T18:35:34.542Z,991.06
2018-03-30T18:36:34.538Z,991.05
2018-03-30T18:38:27.471Z,991.06
2018-03-30T18:39:27.480Z,991.09
2018-03-30T18:41:20.430Z,991.19
2018-03-30T18:42:20.423Z,991.20
2018-03-30T18:44:13.369Z,991.25
2018-03-30T18:45:13.363Z,991.21
2018-03-30T18:47:06.294Z,991.20
2018-03-30T18:48:06.306Z,991.20
2018-03-30T18:49:59.256Z,991.26
2018-03-30T18:50:59.251Z,991.27
2018-03-30T18:52:52.177Z,991.25
2018-03-30T18:53:52.188Z,991.30
2018-03-30T18:55:45.149Z,991.30
2018-03-30T18:56:45.138Z,991.32
2018-03-30T18:58:38.062Z,991.36
2018-03-30T18:59:38.075Z,991.36
2018-03-30T19:01:31.031Z,991.41
2018-03-30T19:02:31.021Z,991.41
2018-03-30T19:04:23.985Z,991.45
2018-03-30T19:05:23.968Z,991.46
2018-03-30T19:07:16.903Z,991.47
2018-03-30T19:08:16.916Z,991.49
2018-03-30T19:10:09.864Z,991.55
2018-03-30T19:11:09.856Z,991.55
2018-03-30T19:13:03.282Z,991.58
2018-03-30T19:14:03.291Z,991.57
2018-03-30T19:15:56.236Z,991.53
2018-03-30T19:16:56.230Z,991.61
2018-03-30T19:18:49.171Z,991.64
2018-03-30T19:19:49.184Z,991.65
2018-03-30T19:21:42.131Z,991.61
2018-03-30T19:22:42.120Z,991.63
2018-03-30T19:24:35.090Z,991.64
2018-03-30T19:25:35.062Z,991.72
2018-03-30T19:27:27.992Z,991.81
2018-03-30T19:28:28.005Z,991.84
2018-03-30T19:30:20.958Z,991.82
2018-03-30T19:31:20.955Z,991.87
2018-03-30T19:33:13.885Z,991.95
2018-03-30T19:34:13.900Z,991.95
2018-03-30T19:36:06.845Z,991.91
2018-03-30T19:37:06.839Z,991.85
2018-03-30T19:38:59.777Z,991.77
2018-03-30T19:39:59.814Z,991.80
2018-03-30T19:41:52.720Z,991.82
2018-03-30T19:42:52.716Z,991.82
2018-03-30T19:44:45.640Z,991.83
2018-03-30T19:45:45.652Z,991.85
2018-03-30T19:47:38.605Z,991.88
2018-03-30T19:48:38.598Z,991.84
2018-03-30T19:50:31.546Z,991.86
2018-03-30T19:51:31.538Z,991.83
2018-03-30T19:53:24.474Z,991.81
2018-03-30T19:54:24.483Z,991.89
2018-03-30T19:56:17.432Z,991.87
2018-03-30T19:57:17.419Z,991.88
2018-03-30T19:59:10.346Z,991.84